Stan Humphreys — WDE6252 — position and weather

sailwx.info

Track history (hours):
 
Tides and Currents Weather Stations Pressure Air Temp Water Temp Dewpoint Dewpoint Depression Visibility Wind Speed Wind Dir Waves Ship Positions

Stan Humphreys

Owner: Magnolia Marine Transport company, Vicksburg, MS. More information available from US FCC via Universal Licensing System and Coast Guard Vessel Documentation Center.

Last reported at 2018-Jun-15 12:32 UTC. Time now 2018-Jun-18 15:12 UTC.
Position N 31°42' W 091°24'.

Length 34 m; draft 9.6 m.

Type: Towing. MMSI: 367377890.

Date/timePositionNaut miles runAvg speedWind from/ knotsBaromVisibWave heightAir tempDewpointWater temp
2018-Jun-15 12:32N 31°42' W 091°24'1 8.5
2018-Jun-15 12:28N 31°43' W 091°24'6 8.8
2018-Jun-15 11:48N 31°48' W 091°21'3 8.8
2018-Jun-15 11:30N 31°51' W 091°21'6 8.7
2018-Jun-15 10:46N 31°53' W 091°13'2 8.6
2018-Jun-15 10:30N 31°55' W 091°12'8 7.6
2018-Jun-15 09:30N 31°60' W 091°05'5 8.4
2018-Jun-15 08:55N 32°05' W 091°04'3 8.5
2018-Jun-15 08:31N 32°07' W 091°06'4 7.6
2018-Jun-15 08:00N 32°07' W 091°02'4 8.5
2018-Jun-15 07:31N 32°11' W 090°60'5 9.0
2018-Jun-15 07:01N 32°15' W 090°58'4 8.7
2018-Jun-15 06:30N 32°18' W 090°55'3 5.7
2018-Jun-15 06:01N 32°21' W 090°56'1 1.3
2018-Jun-15 05:31N 32°21' W 090°57'0 0.1
2018-Jun-15 05:01N 32°21' W 090°57'2 3.9
2018-Jun-15 04:31N 32°21' W 090°60'4 7.0
2018-Jun-15 04:00N 32°25' W 090°60'4 8.4
2018-Jun-15 03:31N 32°27' W 091°04'4 8.1
2018-Jun-15 03:01N 32°30' W 091°07'4 8.3
2018-Jun-15 02:30N 32°34' W 091°06'4 8.4
2018-Jun-15 02:01N 32°37' W 091°09'  
Track history (hours):
 
Tides and Currents Weather Stations Pressure Air Temp Water Temp Dewpoint Dewpoint Depression Visibility Wind Speed Wind Dir Waves Ship Positions

Stan Humphreys

Owner: Magnolia Marine Transport company, Vicksburg, MS. More information available from US FCC via Universal Licensing System and Coast Guard Vessel Documentation Center.

Last reported at 2018-Jun-15 12:32 UTC. Time now 2018-Jun-18 15:12 UTC.
Position N 31°42' W 091°24'.

Length 34 m; draft 9.6 m.

Type: Towing. MMSI: 367377890.

Date/timePositionNaut miles runAvg speedWind from/ knotsBaromVisibWave heightAir tempDewpointWater temp
2018-Jun-15 12:32N 31°42' W 091°24'1 8.5
2018-Jun-15 12:28N 31°43' W 091°24'6 8.8
2018-Jun-15 11:48N 31°48' W 091°21'3 8.8
2018-Jun-15 11:30N 31°51' W 091°21'6 8.7
2018-Jun-15 10:46N 31°53' W 091°13'2 8.6
2018-Jun-15 10:30N 31°55' W 091°12'8 7.6
2018-Jun-15 09:30N 31°60' W 091°05'5 8.4
2018-Jun-15 08:55N 32°05' W 091°04'3 8.5
2018-Jun-15 08:31N 32°07' W 091°06'4 7.6
2018-Jun-15 08:00N 32°07' W 091°02'4 8.5
2018-Jun-15 07:31N 32°11' W 090°60'5 9.0
2018-Jun-15 07:01N 32°15' W 090°58'4 8.7
2018-Jun-15 06:30N 32°18' W 090°55'3 5.7
2018-Jun-15 06:01N 32°21' W 090°56'1 1.3
2018-Jun-15 05:31N 32°21' W 090°57'0 0.1
2018-Jun-15 05:01N 32°21' W 090°57'2 3.9
2018-Jun-15 04:31N 32°21' W 090°60'4 7.0
2018-Jun-15 04:00N 32°25' W 090°60'4 8.4
2018-Jun-15 03:31N 32°27' W 091°04'4 8.1
2018-Jun-15 03:01N 32°30' W 091°07'4 8.3
2018-Jun-15 02:30N 32°34' W 091°06'4 8.4
2018-Jun-15 02:01N 32°37' W 091°09'  

Dump ship's entire track history